Time;durP1;ratioP1;P1;durP2;ratioP2;P2;SDS_P1;SDS_P2;PMS_P1;PMS_P2;Temp;Humidity;BMP_temperature;BMP_pressure;BME280_temperature;BME280_humidity;BME280_pressure;Samples;Min_cycle;Max_cycle;Signal;HPM_P1;HPM_P2
2023/05/31 00:01:30;;;;;;;11.80;8.90;;;;;;;-141.97;87.21;47686.31;5019166;28;20170;-85
2023/05/31 00:03:55;;;;;;;12.63;9.37;;;;;;;-141.97;86.49;47734.34;5018939;28;20235;-85
2023/05/31 00:06:21;;;;;;;14.20;9.47;;;;;;;-141.97;86.63;47665.16;5019769;28;20167;-85
2023/05/31 00:08:46;;;;;;;12.53;9.47;;;;;;;-141.97;86.41;47705.53;5019477;28;20163;-85
2023/05/31 00:11:12;;;;;;;12.63;8.53;;;;;;;-141.97;86.54;47688.22;5019124;28;20192;-84
2023/05/31 00:13:40;;;;;;;12.83;9.20;;;;;;;-141.97;86.52;47595.97;5019808;28;20310;-84
2023/05/31 00:16:07;;;;;;;12.60;9.57;;;;;;;-141.97;86.68;47715.13;5020025;28;20525;-83
2023/05/31 00:18:32;;;;;;;13.27;9.03;;;;;;;-141.97;86.23;47674.78;5028917;28;20167;-84
2023/05/31 00:20:57;;;;;;;12.20;9.40;;;;;;;-141.97;86.42;47695.91;5040201;28;20259;-83
2023/05/31 00:23:23;;;;;;;12.77;9.63;;;;;;;-141.97;86.28;47707.44;5028069;28;20265;-84
2023/05/31 00:25:48;;;;;;;12.43;8.80;;;;;;;-141.97;85.89;47692.06;5015108;28;20237;-82
2023/05/31 00:28:14;;;;;;;13.13;8.70;;;;;;;-141.97;85.48;47595.97;4997075;28;20167;-85
2023/05/31 00:30:40;;;;;;;12.17;8.33;;;;;;;-141.97;85.87;47576.75;4997560;28;20194;-83
2023/05/31 00:33:05;;;;;;;15.40;8.57;;;;;;;-141.97;86.29;47828.53;4998012;28;20182;-83
2023/05/31 00:35:30;;;;;;;14.60;8.63;;;;;;;-141.97;87.27;47872.75;4998024;28;20168;-83
2023/05/31 00:37:56;;;;;;;12.93;9.10;;;;;;;-141.97;86.65;47724.75;4999401;28;20172;-84
2023/05/31 00:40:21;;;;;;;11.63;8.47;;;;;;;-141.97;86.13;47586.34;4981455;28;20167;-84
2023/05/31 00:42:47;;;;;;;14.73;9.00;;;;;;;-141.97;86.75;47676.69;4999099;28;20615;-83
2023/05/31 00:45:12;;;;;;;11.40;7.97;;;;;;;-141.97;87.62;47830.47;4998383;28;20168;-83
2023/05/31 00:47:37;;;;;;;11.27;8.20;;;;;;;-141.97;88.40;47711.28;4998317;28;20191;-84
2023/05/31 00:50:04;;;;;;;12.93;8.70;;;;;;;-141.97;88.29;47638.25;5004161;28;20182;-84
2023/05/31 00:52:31;;;;;;;15.70;8.47;;;;;;;-141.97;88.33;47853.53;5017592;28;20586;-84
2023/05/31 00:54:57;;;;;;;12.83;8.50;;;;;;;-141.97;88.51;47638.25;4999346;28;20179;-83
2023/05/31 00:57:22;;;;;;;12.80;8.50;;;;;;;-141.97;89.03;47836.22;5018247;28;20766;-84
2023/05/31 00:59:48;;;;;;;14.30;9.23;;;;;;;-141.97;89.20;47688.22;5018299;28;20166;-83
2023/05/31 01:02:17;;;;;;;11.97;9.03;;;;;;;-141.97;89.31;47667.06;5000065;28;20178;-84
2023/05/31 01:04:43;;;;;;;14.00;9.13;;;;;;;-141.97;89.46;47845.84;5016963;28;20234;-83
2023/05/31 01:07:09;;;;;;;12.57;9.60;;;;;;;-141.97;89.75;47709.38;5017099;28;20166;-84
2023/05/31 01:09:36;;;;;;;15.37;10.60;;;;;;;-141.97;89.62;47699.75;5016005;28;20224;-84
2023/05/31 01:12:12;;;;;;;14.10;9.90;;;;;;;-141.97;89.68;47613.25;5017081;28;20731;-84
2023/05/31 01:14:53;;;;;;;15.33;10.67;;;;;;;-141.97;89.68;47665.16;5017057;28;20268;-84
2023/05/31 01:17:30;;;;;;;16.07;11.00;;;;;;;-141.97;89.38;47676.69;5016774;28;20245;-84
2023/05/31 01:20:00;;;;;;;15.13;11.33;;;;;;;-141.97;89.75;47718.97;5017320;28;20219;-84
2023/05/31 01:23:05;;;;;;;16.93;12.10;;;;;;;-141.97;90.31;47692.06;5017479;28;20498;-84
2023/05/31 01:26:18;;;;;;;19.23;12.20;;;;;;;-141.97;90.66;47707.44;4956047;28;20223;-84
2023/05/31 01:28:49;;;;;;;21.00;13.77;;;;;;;-141.97;91.44;47653.63;4956563;29;20165;-84
2023/05/31 01:31:20;;;;;;;21.07;13.23;;;;;;;-141.97;91.55;47726.66;4955780;29;20212;-83
2023/05/31 01:33:46;;;;;;;20.93;13.70;;;;;;;-141.97;92.26;47690.16;4956671;29;20221;-84
2023/05/31 01:36:12;;;;;;;22.40;14.40;;;;;;;-141.97;93.17;47717.06;4939926;29;20647;-84
2023/05/31 01:38:37;;;;;;;22.20;14.90;;;;;;;-141.97;93.45;47699.75;4956676;29;20181;-84
2023/05/31 01:41:07;;;;;;;22.33;13.93;;;;;;;-141.97;94.07;47653.63;4956615;29;20161;-83
2023/05/31 01:43:34;;;;;;;26.83;15.17;;;;;;;-141.97;95.19;47694.00;4956295;29;20191;-83
2023/05/31 01:46:00;;;;;;;23.23;14.43;;;;;;;-141.97;95.68;47711.28;4956557;29;20254;-83
2023/05/31 01:48:27;;;;;;;22.40;14.70;;;;;;;-141.97;96.84;47695.91;4955617;29;20173;-83
2023/05/31 01:50:53;;;;;;;21.80;14.47;;;;;;;-141.97;96.80;47653.63;4956065;29;20212;-84
2023/05/31 01:53:19;;;;;;;21.90;13.87;;;;;;;-141.97;96.58;47822.78;4956355;29;20173;-85
2023/05/31 01:55:46;;;;;;;19.93;13.73;;;;;;;-141.97;97.17;47703.59;4956070;29;20674;-85
2023/05/31 01:58:13;;;;;;;24.00;14.33;;;;;;;-141.97;97.10;47738.19;4955332;29;20309;-84
2023/05/31 02:00:40;;;;;;;24.40;14.40;;;;;;;-141.97;97.18;47692.06;4939483;29;20168;-84
2023/05/31 02:03:06;;;;;;;21.23;14.57;;;;;;;-141.97;97.50;47726.66;4997832;28;20197;-84
2023/05/31 02:05:31;;;;;;;23.20;14.90;;;;;;;-141.97;97.70;47815.09;5015175;28;20171;-84
2023/05/31 02:07:56;;;;;;;22.37;15.00;;;;;;;-141.97;97.53;47703.59;5015743;28;20477;-85
2023/05/31 02:10:22;;;;;;;25.37;14.47;;;;;;;-141.97;97.53;47615.19;5015451;28;20651;-84
2023/05/31 02:12:50;;;;;;;25.40;14.57;;;;;;;-141.97;97.81;47572.91;5015284;28;20320;-84
2023/05/31 02:15:19;;;;;;;22.30;14.10;;;;;;;-141.97;97.92;47715.13;5017053;28;20166;-84
2023/05/31 02:17:46;;;;;;;21.77;14.27;;;;;;;-141.97;98.37;47692.06;5015948;28;20179;-85
2023/05/31 02:20:13;;;;;;;21.70;13.93;;;;;;;-141.97;98.78;47657.47;5016460;28;20249;-84
2023/05/31 02:22:43;;;;;;;24.00;14.13;;;;;;;-141.97;99.15;47703.59;5017846;28;20163;-85
2023/05/31 02:25:13;;;;;;;22.47;15.27;;;;;;;-141.97;99.55;47828.53;5017442;28;20209;-83
2023/05/31 02:27:39;;;;;;;23.97;14.63;;;;;;;-141.97;99.91;47586.34;5016947;28;20245;-83
2023/05/31 02:30:06;;;;;;;26.63;15.77;;;;;;;-141.97;99.74;47634.41;5016957;28;20242;-84
2023/05/31 02:32:37;;;;;;;23.97;15.17;;;;;;;-141.97;99.58;47699.75;5016878;28;20177;-84
2023/05/31 02:35:07;;;;;;;24.63;15.53;;;;;;;-141.97;99.39;47715.13;5023362;28;20631;-84
2023/05/31 02:37:32;;;;;;;27.90;16.27;;;;;;;-141.97;99.41;47657.47;5022224;28;20166;-82
2023/05/31 02:39:58;;;;;;;29.40;16.30;;;;;;;-141.97;98.45;47705.53;5020469;28;20194;-83
2023/05/31 02:42:23;;;;;;;28.10;17.37;;;;;;;-141.97;97.68;47817.00;5030555;28;20155;-82
2023/05/31 02:44:49;;;;;;;29.23;17.33;;;;;;;-141.97;97.76;47717.06;5036217;28;20190;-83
2023/05/31 02:47:15;;;;;;;29.43;18.20;;;;;;;-141.97;97.79;47690.16;5016412;28;20653;-83
2023/05/31 02:49:40;;;;;;;31.20;18.13;;;;;;;-141.97;98.34;47730.50;5013581;28;20626;-84
2023/05/31 02:52:06;;;;;;;32.63;19.03;;;;;;;-141.97;98.35;47747.81;4996119;28;20214;-84
2023/05/31 02:54:31;;;;;;;31.90;18.13;;;;;;;-141.97;98.57;47830.47;5015346;28;20170;-84
2023/05/31 02:56:57;;;;;;;28.53;17.53;;;;;;;-141.97;98.17;47722.81;5015635;28;20191;-83
2023/05/31 02:59:23;;;;;;;29.83;17.53;;;;;;;-141.97;98.31;47884.28;5015296;28;20623;-84
2023/05/31 03:01:48;;;;;;;29.63;17.37;;;;;;;-141.97;97.97;47644.00;5015555;28;20159;-84
2023/05/31 03:04:14;;;;;;;28.77;17.47;;;;;;;-141.97;97.45;47718.97;4996564;28;20672;-84
2023/05/31 03:06:39;;;;;;;29.03;17.83;;;;;;;-141.97;97.97;47686.31;5014912;28;20167;-83
2023/05/31 03:09:07;;;;;;;25.77;17.73;;;;;;;-141.97;97.62;47649.78;5014406;28;20588;-84
2023/05/31 03:11:32;;;;;;;30.90;17.50;;;;;;;-141.97;97.68;47619.03;5014225;28;20226;-83
2023/05/31 03:13:58;;;;;;;29.23;17.53;;;;;;;-141.97;97.61;47709.38;5014887;28;20324;-83
2023/05/31 03:16:24;;;;;;;28.50;17.90;;;;;;;-141.97;97.91;47738.19;5014615;28;20618;-84
2023/05/31 03:18:50;;;;;;;34.13;19.00;;;;;;;-141.97;98.64;47855.44;5014095;28;20161;-84
2023/05/31 03:21:16;;;;;;;28.87;18.10;;;;;;;-141.97;98.60;47715.13;5014189;28;20174;-85
2023/05/31 03:23:41;;;;;;;31.13;18.30;;;;;;;-141.97;98.60;47899.66;5014080;28;20655;-84
2023/05/31 03:26:07;;;;;;;29.33;17.67;;;;;;;-141.97;98.51;47880.44;5013016;28;20233;-84
2023/05/31 03:28:32;;;;;;;29.07;17.67;;;;;;;-141.97;98.28;47667.06;5014256;28;20592;-84
2023/05/31 03:30:57;;;;;;;30.27;17.67;;;;;;;-141.97;97.53;47715.13;4996211;28;20642;-84
2023/05/31 03:33:23;;;;;;;28.80;18.03;;;;;;;-141.97;96.64;47597.88;5013019;28;20162;-84
2023/05/31 03:35:48;;;;;;;30.20;17.70;;;;;;;-141.97;96.78;47745.88;5013712;28;20174;-84
2023/05/31 03:38:14;;;;;;;27.50;17.33;;;;;;;-141.97;96.30;47730.50;5013782;28;20245;-84
2023/05/31 03:40:39;;;;;;;27.90;17.13;;;;;;;-141.97;95.36;47734.34;5014041;28;20163;-84
2023/05/31 03:43:05;;;;;;;29.07;17.47;;;;;;;-141.97;94.72;47676.69;5013977;28;20173;-84
2023/05/31 03:45:30;;;;;;;29.87;17.63;;;;;;;-141.97;93.56;47611.34;4995116;28;20357;-84
2023/05/31 03:47:55;;;;;;;28.43;17.50;;;;;;;-141.97;93.81;47703.59;5015939;28;20222;-84
2023/05/31 03:50:21;;;;;;;27.23;17.17;;;;;;;-141.97;94.19;47659.38;5015899;28;20182;-84
2023/05/31 03:52:46;;;;;;;26.03;16.23;;;;;;;-141.97;95.36;47757.41;4994836;28;20230;-83
2023/05/31 03:55:13;;;;;;;27.47;16.60;;;;;;;-141.97;95.40;47688.22;5010718;28;20201;-85
2023/05/31 03:57:38;;;;;;;28.07;16.93;;;;;;;-141.97;94.58;47705.53;5014869;28;20237;-84
2023/05/31 04:00:05;;;;;;;26.50;16.77;;;;;;;-141.97;93.22;47699.75;5013876;28;20182;-84
2023/05/31 04:02:31;;;;;;;28.27;15.73;;;;;;;-141.97;93.24;47707.44;5013699;28;20258;-84
2023/05/31 04:04:57;;;;;;;24.63;15.40;;;;;;;-141.97;92.88;47713.22;5013434;28;20171;-84
2023/05/31 04:07:22;;;;;;;23.13;15.10;;;;;;;-141.97;93.17;47713.22;5013751;28;20167;-85
2023/05/31 04:09:47;;;;;;;23.90;14.90;;;;;;;-141.97;92.40;47661.31;5010704;28;20159;-84
2023/05/31 04:12:13;;;;;;;24.00;14.90;;;;;;;-141.97;91.06;47717.06;4994914;28;20332;-85
2023/05/31 04:14:38;;;;;;;23.17;14.20;;;;;;;-141.97;89.67;47772.78;4994136;28;20182;-84
2023/05/31 04:17:05;;;;;;;20.13;13.43;;;;;;;-141.97;89.20;47718.97;4994093;28;20247;-84
2023/05/31 04:19:30;;;;;;;20.17;13.77;;;;;;;-141.97;90.14;47701.69;4993542;28;20182;-84
2023/05/31 04:21:55;;;;;;;22.93;13.80;;;;;;;-141.97;91.23;47720.91;4993933;28;20168;-84
2023/05/31 04:24:21;;;;;;;23.80;14.50;;;;;;;-141.97;91.63;47684.38;4994123;28;20191;-84
2023/05/31 04:26:46;;;;;;;21.00;13.83;;;;;;;-141.97;91.61;47707.44;4994066;28;20230;-85
2023/05/31 04:29:12;;;;;;;24.50;14.17;;;;;;;-141.97;91.06;47572.91;4993223;28;20219;-85
2023/05/31 04:31:37;;;;;;;22.77;14.27;;;;;;;-141.97;90.25;47676.69;4994425;28;20565;-84
2023/05/31 04:34:04;;;;;;;21.47;14.00;;;;;;;-141.97;88.68;47711.28;4994155;28;20159;-84
2023/05/31 04:36:32;;;;;;;21.40;13.80;;;;;;;-141.97;87.92;47549.84;4991754;28;20255;-85
2023/05/31 04:38:58;;;;;;;22.03;14.10;;;;;;;-141.97;87.09;47795.88;4997996;28;20329;-85
2023/05/31 04:41:26;;;;;;;21.80;13.70;;;;;;;-141.97;86.40;47724.75;4995733;28;20164;-85
2023/05/31 04:43:56;;;;;;;22.50;14.27;;;;;;;-141.97;86.94;47699.75;4994994;28;20246;-85
2023/05/31 04:46:22;;;;;;;21.37;14.17;;;;;;;-141.97;86.55;47707.44;5001901;28;20247;-84
2023/05/31 04:48:49;;;;;;;26.03;14.57;;;;;;;-141.97;85.56;47697.84;5015692;28;20183;-84
2023/05/31 04:51:16;;;;;;;22.63;13.83;;;;;;;-141.97;84.23;47619.03;4999516;28;20654;-86
2023/05/31 04:53:41;;;;;;;18.77;12.80;;;;;;;-141.97;83.32;47857.38;5007473;28;20241;-85
2023/05/31 04:56:09;;;;;;;21.67;13.33;;;;;;;-141.97;84.91;47672.84;5017842;28;20167;-85
2023/05/31 04:58:35;;;;;;;21.53;13.10;;;;;;;-141.97;85.03;47734.34;5017304;28;20177;-85
2023/05/31 05:01:00;;;;;;;22.43;13.40;;;;;;;-141.97;85.01;47688.22;5017998;28;20206;-85
2023/05/31 05:03:26;;;;;;;20.83;12.83;;;;;;;-141.97;84.22;47703.59;5021954;28;20166;-84
2023/05/31 05:05:52;;;;;;;19.33;12.17;;;;;;;-141.97;83.53;47694.00;5035152;28;20163;-84
2023/05/31 05:08:18;;;;;;;20.17;12.60;;;;;;;-141.97;83.16;47715.13;5030614;28;20220;-84
2023/05/31 05:10:43;;;;;;;21.57;12.73;;;;;;;-141.97;83.34;47674.78;5016723;28;20199;-85
2023/05/31 05:13:10;;;;;;;20.20;12.23;;;;;;;-141.97;83.62;47736.28;5017035;28;20239;-84
2023/05/31 05:15:35;;;;;;;18.63;12.50;;;;;;;-141.97;85.00;47611.34;5014521;28;20663;-85
2023/05/31 05:18:01;;;;;;;19.30;12.23;;;;;;;-141.97;83.93;47838.16;5005334;28;20175;-85
2023/05/31 05:20:26;;;;;;;17.73;11.70;;;;;;;-141.97;84.25;47628.63;4997432;28;20180;-84
2023/05/31 05:22:52;;;;;;;21.90;12.40;;;;;;;-141.97;84.40;47730.50;5000471;28;20647;-85
2023/05/31 05:25:18;;;;;;;18.10;11.80;;;;;;;-141.97;82.65;47546.00;5017722;28;20167;-85
2023/05/31 05:27:43;;;;;;;18.37;10.80;;;;;;;-141.97;81.36;47626.72;5019838;28;20232;-84
2023/05/31 05:30:09;;;;;;;16.10;10.87;;;;;;;-141.97;80.04;47694.00;5019032;28;20609;-84
2023/05/31 05:32:34;;;;;;;13.30;10.13;;;;;;;-141.97;81.01;47701.69;5004589;28;20195;-84
2023/05/31 05:35:00;;;;;;;15.50;9.93;;;;;;;-141.97;79.46;47574.81;5011129;28;20166;-85
2023/05/31 05:37:25;;;;;;;17.90;12.00;;;;;;;-141.97;78.19;47522.91;5011532;28;20172;-86
2023/05/31 05:39:51;;;;;;;16.23;10.93;;;;;;;-141.97;76.87;47697.84;5018577;28;20179;-86
2023/05/31 05:42:16;;;;;;;14.57;10.10;;;;;;;-141.97;77.50;47546.00;5018547;28;20190;-86
2023/05/31 05:44:41;;;;;;;17.53;10.90;;;;;;;-141.97;76.90;47674.78;5016675;28;20167;-87
2023/05/31 05:47:07;;;;;;;14.23;10.20;;;;;;;-141.97;76.48;47815.09;5007401;28;20176;-86
2023/05/31 05:49:33;;;;;;;16.60;10.53;;;;;;;-141.97;76.86;47676.69;4996095;28;20183;-86
2023/05/31 05:51:59;;;;;;;17.90;11.27;;;;;;;-141.97;76.42;47672.84;4986783;28;20195;-86
2023/05/31 05:54:24;;;;;;;15.07;9.67;;;;;;;-141.97;75.32;47515.22;4996252;28;20156;-87
2023/05/31 05:56:50;;;;;;;13.37;9.80;;;;;;;-141.97;75.13;47617.09;4994908;28;20187;-86
2023/05/31 05:59:15;;;;;;;16.57;11.20;;;;;;;-141.97;76.24;47865.06;4995365;28;20171;-87
2023/05/31 06:01:41;;;;;;;18.33;11.53;;;;;;;-141.97;77.03;47782.41;4995516;28;20159;-85
2023/05/31 06:04:07;;;;;;;15.83;11.40;;;;;;;-141.97;76.95;47538.28;4995046;28;20207;-86
2023/05/31 06:06:33;;;;;;;18.90;10.93;;;;;;;-141.97;75.52;47695.91;5001238;28;20174;-88
2023/05/31 06:08:58;;;;;;;14.40;10.37;;;;;;;-141.97;74.18;47817.00;4996867;28;20175;-87
2023/05/31 06:11:25;;;;;;;14.70;10.10;;;;;;;-141.97;72.45;47480.63;4996116;28;20223;-86
2023/05/31 06:13:56;;;;;;;15.80;10.73;;;;;;;-141.97;72.02;47605.56;4994821;28;20229;-87
2023/05/31 06:16:22;;;;;;;14.73;10.40;;;;;;;-141.97;72.00;47613.25;4995389;28;20195;-88
2023/05/31 06:18:47;;;;;;;16.07;10.90;;;;;;;-141.97;71.83;47611.34;4995179;28;20182;-87
2023/05/31 06:21:13;;;;;;;16.80;10.50;;;;;;;-141.97;71.00;47890.06;5009884;28;20621;-86
2023/05/31 06:23:38;;;;;;;16.93;11.00;;;;;;;-141.97;70.75;47599.81;4994938;28;20177;-86
2023/05/31 06:26:03;;;;;;;17.13;10.83;;;;;;;-141.97;70.33;47640.16;4995416;28;20171;-85
2023/05/31 06:28:29;;;;;;;14.47;10.20;;;;;;;-141.97;69.30;47599.81;4993290;28;20533;-87
2023/05/31 06:30:54;;;;;;;13.67;10.27;;;;;;;-141.97;69.86;47734.34;4994358;28;20201;-86
2023/05/31 06:33:20;;;;;;;14.70;10.00;;;;;;;-141.97;69.54;47778.56;4994772;28;20218;-88
2023/05/31 06:35:46;;;;;;;15.90;10.60;;;;;;;-141.97;68.39;47828.53;4993675;28;20605;-83
2023/05/31 06:38:16;;;;;;;17.37;10.43;;;;;;;-141.97;67.05;47680.53;4995621;28;20167;-87
2023/05/31 06:40:43;;;;;;;15.47;10.30;;;;;;;-141.97;67.70;47857.38;4994676;28;20530;-87
2023/05/31 06:43:09;;;;;;;14.37;9.90;;;;;;;-141.97;67.88;47638.25;4994276;28;20224;-86
2023/05/31 06:45:34;;;;;;;15.67;10.37;;;;;;;-141.97;67.38;47661.31;4995173;28;20167;-87
2023/05/31 06:47:59;;;;;;;14.63;9.53;;;;;;;-141.97;66.90;47526.75;5025936;28;20181;-85
2023/05/31 06:50:25;;;;;;;17.00;10.33;;;;;;;-141.97;67.25;47465.25;5020262;28;20235;-87
2023/05/31 06:52:50;;;;;;;16.60;10.50;;;;;;;-141.97;68.71;47732.44;5004774;28;20271;-85
2023/05/31 06:55:16;;;;;;;19.00;10.77;;;;;;;-141.97;67.92;47538.28;5013955;28;20611;-85
2023/05/31 06:57:41;;;;;;;14.53;10.30;;;;;;;-141.97;67.40;47711.28;5013792;28;20252;-86
2023/05/31 07:00:07;;;;;;;15.57;10.27;;;;;;;-141.97;65.96;47659.38;5020705;28;20170;-88
2023/05/31 07:02:33;;;;;;;17.83;9.70;;;;;;;-141.97;64.37;47490.25;5015780;28;20165;-87
2023/05/31 07:04:59;;;;;;;12.53;8.73;;;;;;;-141.97;64.08;47522.91;5034112;28;20169;-88
2023/05/31 07:07:26;;;;;;;14.17;9.00;;;;;;;-141.97;65.96;47713.22;5033315;28;20623;-87
2023/05/31 07:09:51;;;;;;;13.70;9.00;;;;;;;-141.97;64.48;47478.72;5011620;28;20186;-87
2023/05/31 07:12:17;;;;;;;13.37;9.10;;;;;;;-141.97;63.79;47572.91;5015183;28;20244;-87
2023/05/31 07:14:42;;;;;;;11.00;8.07;;;;;;;-141.97;63.00;47620.94;5016079;28;20259;-87
2023/05/31 07:17:08;;;;;;;12.10;7.87;;;;;;;-141.97;63.10;47542.16;5015429;28;20163;-88
2023/05/31 07:19:44;;;;;;;11.70;8.13;;;;;;;-141.97;62.03;47511.38;5007103;28;20183;-88
2023/05/31 07:22:09;;;;;;;13.37;8.73;;;;;;;-141.97;63.00;47619.03;4994624;28;20186;-87
2023/05/31 07:24:35;;;;;;;11.83;8.37;;;;;;;-141.97;63.27;47615.19;4997966;28;20632;-87
2023/05/31 07:27:00;;;;;;;11.57;8.40;;;;;;;-141.97;64.16;47857.38;5012741;28;20171;-86
2023/05/31 07:29:26;;;;;;;11.93;7.67;;;;;;;-141.97;64.29;47547.91;5019465;28;20548;-86
2023/05/31 07:31:51;;;;;;;12.30;7.67;;;;;;;-141.97;64.05;47647.84;5000214;28;20213;-87
2023/05/31 07:34:16;;;;;;;15.73;7.70;;;;;;;-141.97;62.47;47503.69;5014034;28;20541;-87
2023/05/31 07:36:42;;;;;;;13.20;8.17;;;;;;;-141.97;61.33;47538.28;5013497;28;20218;-87
2023/05/31 07:39:08;;;;;;;11.50;8.23;;;;;;;-141.97;61.65;47557.53;5012671;28;20198;-87
2023/05/31 07:41:34;;;;;;;11.87;7.90;;;;;;;-141.97;60.61;47757.41;4995520;28;20642;-86
2023/05/31 07:44:01;;;;;;;11.63;8.10;;;;;;;-141.97;60.03;47480.63;4996501;28;20170;-88
2023/05/31 07:46:26;;;;;;;13.57;8.70;;;;;;;-141.97;59.59;47592.13;4994652;28;20166;-87
2023/05/31 07:48:53;;;;;;;10.97;7.40;;;;;;;-141.97;59.22;47411.44;5033183;28;20174;-88
2023/05/31 07:51:19;;;;;;;14.13;8.10;;;;;;;-141.97;59.84;47607.50;4996665;28;20225;-87
2023/05/31 07:53:46;;;;;;;13.23;7.67;;;;;;;-141.97;59.35;47620.94;4986780;28;20230;-87
2023/05/31 07:56:12;;;;;;;9.90;7.90;;;;;;;-141.97;59.28;47642.09;5013274;28;20612;-86
2023/05/31 07:58:38;;;;;;;11.63;7.57;;;;;;;-141.97;58.15;47807.41;5013327;28;20185;-88
2023/05/31 08:01:03;;;;;;;11.97;7.63;;;;;;;-141.97;59.55;47742.03;5013691;28;20198;-87
2023/05/31 08:03:30;;;;;;;11.23;8.20;;;;;;;-141.97;60.09;47524.84;4990233;28;20540;-87
2023/05/31 08:05:55;;;;;;;11.83;8.73;;;;;;;-141.97;61.14;47761.25;5000785;28;20191;-87
2023/05/31 08:08:21;;;;;;;12.07;8.00;;;;;;;-141.97;60.60;47426.81;4995827;28;20640;-86
2023/05/31 08:10:46;;;;;;;11.53;8.13;;;;;;;-141.97;60.20;47469.09;5022988;28;20195;-87
2023/05/31 08:13:12;;;;;;;13.53;7.87;;;;;;;-141.97;58.67;47542.16;4997125;28;20291;-88
2023/05/31 08:15:37;;;;;;;13.07;7.53;;;;;;;-141.97;58.75;47792.03;5017564;28;20167;-87
2023/05/31 08:18:03;;;;;;;10.07;7.00;;;;;;;-141.97;59.57;47784.34;5014268;28;20167;-86
2023/05/31 08:20:28;;;;;;;11.33;7.60;;;;;;;-141.97;58.93;47476.78;5016753;28;20185;-87
2023/05/31 08:22:54;;;;;;;13.27;7.30;;;;;;;-141.97;57.58;47768.94;4997312;28;20555;-87
2023/05/31 08:25:20;;;;;;;11.40;8.17;;;;;;;-141.97;55.91;47624.78;4997062;28;20163;-86
2023/05/31 08:27:45;;;;;;;13.63;8.23;;;;;;;-141.97;56.68;47588.28;4997437;28;20254;-86
2023/05/31 08:30:12;;;;;;;11.33;8.00;;;;;;;-141.97;57.31;47626.72;4997213;28;20759;-86
2023/05/31 08:32:38;;;;;;;9.85;7.60;;;;;;;-141.97;56.07;47599.81;4996130;28;20640;-86
2023/05/31 08:35:06;;;;;;;10.10;7.70;;;;;;;-141.97;56.95;47594.03;4996336;28;20647;-87
2023/05/31 08:37:31;;;;;;;13.30;7.67;;;;;;;-141.97;56.27;47476.78;4996031;28;20205;-87
2023/05/31 08:39:57;;;;;;;10.07;7.45;;;;;;;-141.97;55.08;47544.06;4995700;28;20270;-87
2023/05/31 08:42:32;;;;;;;11.75;8.48;;;;;;;-141.97;54.42;47584.44;4996512;28;20178;-88
2023/05/31 08:45:00;;;;;;;11.65;8.00;;;;;;;-141.97;56.08;47599.81;4999634;28;20173;-90
2023/05/31 08:47:38;;;;;;;11.43;7.90;;;;;;;-141.97;56.44;47467.19;4999934;28;20191;-87
2023/05/31 08:50:04;;;;;;;11.13;7.13;;;;;;;-141.97;54.71;47505.63;4996518;28;20246;-86
2023/05/31 08:52:31;;;;;;;10.80;7.90;;;;;;;-141.97;55.22;47507.53;4995763;28;20207;-86
2023/05/31 08:54:58;;;;;;;13.13;7.90;;;;;;;-141.97;55.26;47718.97;4988187;28;20715;-87
2023/05/31 08:57:24;;;;;;;9.60;7.07;;;;;;;-141.97;53.38;47728.59;5003342;28;20199;-87
2023/05/31 08:59:51;;;;;;;11.10;7.00;;;;;;;-141.97;53.41;47482.56;5017019;28;20207;-87
2023/05/31 09:02:17;;;;;;;11.77;7.68;;;;;;;-141.97;54.02;47538.28;5015916;28;20208;-86
2023/05/31 09:04:43;;;;;;;13.35;7.80;;;;;;;-141.97;52.94;47642.09;5016665;28;20233;-88
2023/05/31 09:07:08;;;;;;;12.68;7.28;;;;;;;-141.97;51.86;47486.41;5015931;28;20172;-87
2023/05/31 09:09:34;;;;;;;9.07;7.25;;;;;;;-141.97;50.90;47447.97;5015939;28;20169;-85
2023/05/31 09:12:00;;;;;;;8.55;6.75;;;;;;;-141.97;51.54;47522.91;5015176;28;20244;-86
2023/05/31 09:14:26;;;;;;;10.65;7.07;;;;;;;-141.97;50.38;47415.28;5016685;28;20231;-86
2023/05/31 09:16:51;;;;;;;7.97;6.82;;;;;;;-141.97;49.70;47684.38;5016239;28;20517;-86
2023/05/31 09:19:17;;;;;;;9.15;7.05;;;;;;;-141.97;50.55;47592.13;4998817;28;20221;-86
2023/05/31 09:21:44;;;;;;;9.40;7.78;;;;;;;-141.97;51.88;47680.53;4997718;28;20188;-86
2023/05/31 09:24:10;;;;;;;13.00;8.13;;;;;;;-141.97;52.16;47511.38;5015399;28;20165;-86
2023/05/31 09:26:44;;;;;;;12.60;8.02;;;;;;;-141.97;52.86;47376.84;4997375;28;20329;-86
2023/05/31 09:29:10;;;;;;;10.93;7.72;;;;;;;-141.97;52.66;47419.13;5016576;28;20183;-87
2023/05/31 09:31:35;;;;;;;12.32;8.15;;;;;;;-141.97;51.53;47474.88;5014804;28;20215;-86
2023/05/31 09:34:01;;;;;;;10.40;8.27;;;;;;;-141.97;52.60;47396.06;5016443;28;20161;-86
2023/05/31 09:36:28;;;;;;;12.00;8.70;;;;;;;-141.97;52.15;47332.66;4998810;28;20173;-86
2023/05/31 09:39:04;;;;;;;11.13;8.00;;;;;;;-141.97;51.12;47361.47;4998862;28;20236;-86
2023/05/31 09:41:31;;;;;;;11.63;8.10;;;;;;;-141.97;49.37;47576.75;5014109;28;20233;-87
2023/05/31 09:43:56;;;;;;;10.35;8.00;;;;;;;-141.97;48.64;47442.19;4998575;28;20180;-86
2023/05/31 09:46:23;;;;;;;10.18;8.00;;;;;;;-141.97;48.50;47459.50;5015418;28;20175;-86
2023/05/31 09:49:00;;;;;;;11.70;8.57;;;;;;;-141.97;48.00;47530.59;5019160;28;20650;-87
2023/05/31 09:51:26;;;;;;;13.57;8.60;;;;;;;-141.97;48.70;47753.56;5059136;23;20245;-87
2023/05/31 09:53:55;;;;;;;12.40;8.35;;;;;;;-141.97;48.50;47542.16;5021887;23;20251;-84
2023/05/31 09:56:22;;;;;;;10.55;8.10;;;;;;;-141.97;46.96;47559.44;4960776;28;20195;-86
2023/05/31 09:58:49;;;;;;;13.57;8.30;;;;;;;-141.97;46.45;47509.47;4958996;28;20182;-86
2023/05/31 10:01:19;;;;;;;12.98;7.95;;;;;;;-141.97;45.98;47544.06;4968597;28;20556;-87
2023/05/31 10:03:45;;;;;;;11.80;8.00;;;;;;;-141.97;46.72;47705.53;4977293;28;20178;-86
2023/05/31 10:06:11;;;;;;;14.10;8.73;;;;;;;-141.97;46.03;47640.16;4994752;28;20190;-86
2023/05/31 10:08:37;;;;;;;12.95;8.68;;;;;;;-141.97;45.81;47496.00;4995062;28;20692;-86
2023/05/31 10:11:04;;;;;;;12.95;9.02;;;;;;;-141.97;46.35;47392.22;4977433;28;20206;-86
2023/05/31 10:13:31;;;;;;;15.43;8.82;;;;;;;-141.97;46.47;47486.41;4996404;28;20178;-86
2023/05/31 10:16:07;;;;;;;13.00;8.27;;;;;;;-141.97;46.07;47655.53;5002370;28;20165;-85
2023/05/31 10:18:36;;;;;;;12.00;8.27;;;;;;;-141.97;45.40;47369.16;4996505;28;20171;-86
2023/05/31 10:21:02;;;;;;;13.75;8.50;;;;;;;-141.97;44.90;47546.00;4995315;28;20176;-87
2023/05/31 10:23:28;;;;;;;14.48;9.27;;;;;;;-141.97;46.33;47359.56;4995194;28;20230;-87
2023/05/31 10:26:15;;;;;;;14.55;8.77;;;;;;;-141.97;45.60;47467.19;4995111;28;20202;-87
2023/05/31 10:28:45;;;;;;;10.50;7.93;;;;;;;-141.97;43.31;47497.94;4994585;28;20210;-87
2023/05/31 10:31:11;;;;;;;9.48;7.18;;;;;;;-141.97;41.28;47474.88;4976902;28;20227;-87
2023/05/31 10:33:41;;;;;;;14.20;7.10;;;;;;;-141.97;41.38;47463.34;4994769;28;20172;-87
2023/05/31 10:36:07;;;;;;;8.30;7.07;;;;;;;-141.97;41.17;47444.13;4994664;28;20240;-87
2023/05/31 10:38:42;;;;;;;9.32;6.82;;;;;;;-141.97;41.14;47820.84;4994966;28;20184;-86
2023/05/31 10:41:18;;;;;;;9.30;6.75;;;;;;;-141.97;39.57;47488.31;4994253;28;20269;-86
2023/05/31 10:43:54;;;;;;;10.25;6.90;;;;;;;-141.97;38.56;47388.38;4994692;28;21013;-86
2023/05/31 10:46:25;;;;;;;8.50;6.68;;;;;;;-141.97;37.73;47517.16;4976850;28;20182;-87
2023/05/31 10:48:53;;;;;;;12.18;7.68;;;;;;;-141.97;40.00;47745.88;4977131;28;20693;-87
2023/05/31 10:51:19;;;;;;;9.27;7.40;;;;;;;-141.97;40.64;47269.22;4998192;28;20210;-86
2023/05/31 10:53:48;;;;;;;10.48;7.32;;;;;;;-141.97;41.38;47290.38;4990307;28;20249;-86
2023/05/31 10:56:14;;;;;;;9.98;7.82;;;;;;;-141.97;41.64;47538.28;5006845;28;20595;-86
2023/05/31 10:58:42;;;;;;;9.65;8.10;;;;;;;-141.97;41.91;47530.59;4981266;28;20176;-86
2023/05/31 11:01:11;;;;;;;11.15;7.88;;;;;;;-141.97;41.48;47357.63;4974962;28;20196;-86
2023/05/31 11:03:47;;;;;;;13.35;8.75;;;;;;;-141.97;43.11;47565.22;4974099;28;20184;-87
2023/05/31 11:06:15;;;;;;;11.63;8.88;;;;;;;-141.97;42.44;47338.41;4974379;28;20176;-87